Time;durP1;ratioP1;P1;durP2;ratioP2;P2;SDS_P1;SDS_P2;PMS_P1;PMS_P2;Temp;Humidity;BMP_temperature;BMP_pressure;BME280_temperature;BME280_humidity;BME280_pressure;Samples;Min_cycle;Max_cycle;Signal;HPM_P1;HPM_P2
2022/05/02 00:00:54;;;;;;;35.67;21.07;;;5.30;1.00;6.10;94197.00;;;;7396675;19;20129;-81
2022/05/02 00:03:21;;;;;;;27.47;19.83;;;5.30;1.00;6.00;94163.00;;;;7395482;19;20137;-80
2022/05/02 00:05:48;;;;;;;35.83;22.20;;;5.30;1.00;6.00;94159.00;;;;7398792;19;20657;-80
2022/05/02 00:08:22;;;;;;;31.80;22.73;;;5.20;1.00;6.10;94151.00;;;;7394591;19;20603;-80
2022/05/02 00:10:49;;;;;;;36.20;22.37;;;5.10;1.00;6.10;94145.00;;;;7393030;19;20175;-81
2022/05/02 00:13:16;;;;;;;31.70;22.20;;;5.10;1.00;6.00;94161.00;;;;7393082;19;20185;-80
2022/05/02 00:15:50;;;;;;;34.57;23.33;;;5.10;1.00;5.90;94163.00;;;;7395578;19;20137;-81
2022/05/02 00:18:17;;;;;;;35.13;23.50;;;5.20;1.00;5.90;94140.00;;;;7394763;19;20604;-80
2022/05/02 00:20:44;;;;;;;31.23;22.20;;;5.20;1.00;5.90;94167.00;;;;7396885;19;20133;-79
2022/05/02 00:23:18;;;;;;;29.67;21.87;;;5.20;1.00;5.90;94169.00;;;;7396453;19;20192;-79
2022/05/02 00:25:45;;;;;;;29.80;22.53;;;5.20;1.00;6.00;94178.00;;;;7391744;19;20137;-80
2022/05/02 00:28:14;;;;;;;37.37;23.03;;;5.10;1.00;5.90;94147.00;;;;7386420;19;20169;-80
2022/05/02 00:30:48;;;;;;;32.47;21.80;;;5.10;1.00;5.80;94149.00;;;;7394416;19;20128;-80
2022/05/02 00:33:15;;;;;;;34.80;23.33;;;5.10;1.00;5.70;94149.00;;;;7395094;19;20121;-80
2022/05/02 00:35:42;;;;;;;32.27;22.67;;;5.10;1.00;5.80;94142.00;;;;7396821;19;20169;-80
2022/05/02 00:38:16;;;;;;;38.83;24.00;;;5.10;1.00;5.80;94168.00;;;;7394391;19;20664;-80
2022/05/02 00:40:43;;;;;;;34.57;24.70;;;5.10;1.00;5.80;94130.00;;;;7393449;19;20136;-80
2022/05/02 00:43:10;;;;;;;34.10;23.90;;;5.10;1.00;5.80;94137.00;;;;7394712;19;20181;-81
2022/05/02 00:45:46;;;;;;;34.30;23.57;;;5.10;1.00;5.80;94180.00;;;;7394071;19;20495;-80
2022/05/02 00:48:14;;;;;;;36.77;24.53;;;5.20;1.00;5.80;94135.00;;;;7393224;19;20148;-80
2022/05/02 00:50:47;;;;;;;38.53;24.53;;;5.20;1.00;5.80;94131.00;;;;7397233;19;20609;-79
2022/05/02 00:53:24;;;;;;;31.57;22.87;;;5.20;1.00;5.80;94160.00;;;;7395342;19;20132;-80
2022/05/02 00:55:51;;;;;;;33.30;24.30;;;5.10;1.00;5.80;94149.00;;;;7393960;19;20187;-80
2022/05/02 00:58:24;;;;;;;36.83;24.60;;;5.00;1.00;5.90;94131.00;;;;7395564;19;20155;-80
2022/05/02 01:00:58;;;;;;;40.10;26.17;;;5.00;1.00;5.80;94148.00;;;;7395251;19;20129;-77
2022/05/02 01:03:26;;;;;;;35.47;25.07;;;5.00;1.00;5.80;94141.00;;;;7394269;19;20607;-77
2022/05/02 01:08:47;;;;;;;38.87;25.53;;;5.10;1.00;5.70;94145.00;;;;7392888;19;20141;-77
2022/05/02 01:11:28;;;;;;;38.20;26.67;;;5.10;1.00;5.80;94130.00;;;;7392123;19;20144;-76
2022/05/02 01:14:07;;;;;;;35.53;25.30;;;5.10;1.00;5.80;94153.00;;;;7393322;19;20137;-77
2022/05/02 01:16:35;;;;;;;37.87;24.53;;;5.10;1.00;5.60;94132.00;;;;7393313;19;20151;-78
2022/05/02 01:19:09;;;;;;;34.47;24.27;;;5.00;1.00;5.60;94120.00;;;;7391297;19;20132;-78
2022/05/02 01:21:37;;;;;;;32.87;23.70;;;4.90;1.00;5.60;94133.00;;;;7395321;19;20141;-77
2022/05/02 01:24:05;;;;;;;36.90;25.67;;;5.00;1.00;5.60;94145.00;;;;7393194;19;20203;-77
2022/05/02 01:26:39;;;;;;;37.80;26.03;;;4.90;1.00;5.70;94117.00;;;;7393102;19;20243;-77
2022/05/02 01:29:06;;;;;;;45.07;24.77;;;4.90;1.00;5.70;94142.00;;;;7392218;19;20144;-78
2022/05/02 01:31:33;;;;;;;40.13;26.23;;;5.00;1.00;5.60;94136.00;;;;7392785;19;20133;-77
2022/05/02 01:34:07;;;;;;;33.63;24.87;;;5.00;1.00;5.60;94115.00;;;;7396195;19;20207;-78
2022/05/02 01:36:34;;;;;;;43.03;26.87;;;4.90;1.00;5.70;94126.00;;;;7394266;19;20157;-77
2022/05/02 01:39:01;;;;;;;42.90;26.97;;;4.90;1.00;5.60;94142.00;;;;7392879;19;20129;-77
2022/05/02 01:41:35;;;;;;;47.27;28.07;;;4.90;1.00;5.60;94105.00;;;;7392690;19;20634;-77
2022/05/02 01:44:02;;;;;;;40.97;27.23;;;4.90;1.00;5.60;94126.00;;;;7390769;19;20144;-78
2022/05/02 01:46:29;;;;;;;39.13;27.60;;;4.90;1.00;5.60;94127.00;;;;7392367;19;20483;-77
2022/05/02 01:49:03;;;;;;;41.40;27.23;;;5.00;1.00;5.60;94128.00;;;;7391761;19;20542;-77
2022/05/02 01:51:30;;;;;;;40.83;27.87;;;4.90;1.00;5.60;94089.00;;;;7394401;19;20167;-76
2022/05/02 01:53:57;;;;;;;47.47;28.13;;;4.90;1.00;5.60;94094.00;;;;7391647;19;20121;-78
2022/05/02 01:56:31;;;;;;;41.83;28.10;;;4.90;1.00;5.50;94076.00;;;;7392492;19;20161;-77
2022/05/02 01:58:58;;;;;;;44.27;28.83;;;4.90;1.00;5.60;94081.00;;;;7393280;19;20465;-77
2022/05/02 02:01:25;;;;;;;43.67;28.43;;;4.90;1.00;5.60;94080.00;;;;7393938;19;20169;-77
2022/05/02 02:04:00;;;;;;;45.30;28.23;;;4.90;1.00;5.40;94082.00;;;;7391676;19;20201;-77
2022/05/02 02:06:27;;;;;;;42.83;29.10;;;4.90;1.00;5.50;94108.00;;;;7393753;19;20132;-76
2022/05/02 02:08:54;;;;;;;47.93;30.23;;;4.80;1.00;5.50;94090.00;;;;7391609;19;20492;-77
2022/05/02 02:11:41;;;;;;;46.63;30.07;;;4.80;1.00;5.50;94089.00;;;;7391099;19;20491;-77
2022/05/02 02:14:15;;;;;;;48.37;31.27;;;4.90;1.00;5.50;94112.00;;;;7392033;19;20136;-77
2022/05/02 02:16:49;;;;;;;47.37;30.40;;;4.80;1.00;5.40;94114.00;;;;7391237;19;20611;-77
2022/05/02 02:19:16;;;;;;;50.70;31.47;;;4.80;1.00;5.60;94083.00;;;;7391548;19;20497;-77
2022/05/02 02:21:43;;;;;;;48.10;30.80;;;4.80;1.00;5.60;94074.00;;;;7393849;19;20152;-77
2022/05/02 02:24:17;;;;;;;49.47;30.97;;;4.90;1.00;5.60;94089.00;;;;7393210;19;20576;-77
2022/05/02 02:26:44;;;;;;;49.87;31.07;;;4.90;1.00;5.70;94102.00;;;;7391109;19;20589;-76
2022/05/02 02:29:11;;;;;;;46.63;30.67;;;4.90;1.00;5.60;94103.00;;;;7391197;19;20132;-77
2022/05/02 02:31:45;;;;;;;45.80;30.20;;;5.00;1.00;5.60;94085.00;;;;7392601;19;20157;-77
2022/05/02 02:34:12;;;;;;;48.63;30.57;;;5.00;1.00;5.60;94096.00;;;;7391013;19;20148;-77
2022/05/02 02:36:39;;;;;;;48.77;30.07;;;5.00;1.00;5.50;94073.00;;;;7393362;19;20596;-77
2022/05/02 02:39:19;;;;;;;44.70;30.77;;;4.90;1.00;5.50;94070.00;;;;7392176;19;20129;-77
2022/05/02 02:41:46;;;;;;;47.27;30.20;;;4.90;1.00;5.50;94094.00;;;;7390266;19;20165;-78
2022/05/02 02:44:20;;;;;;;42.17;29.27;;;4.90;1.00;5.40;94076.00;;;;7393401;19;20128;-78
2022/05/02 02:46:47;;;;;;;38.80;28.07;;;4.90;1.00;5.50;94072.00;;;;7390050;19;20130;-77
2022/05/02 02:49:14;;;;;;;45.37;30.17;;;4.90;1.00;5.50;94076.00;;;;7389453;19;20625;-77
2022/05/02 02:51:48;;;;;;;42.93;29.90;;;4.90;1.00;5.40;94062.00;;;;7393956;19;20129;-76
2022/05/02 02:54:15;;;;;;;44.23;28.83;;;4.80;1.00;5.40;94098.00;;;;7394684;19;20156;-78
2022/05/02 02:56:42;;;;;;;40.27;28.20;;;4.80;1.00;5.30;94053.00;;;;7390251;19;20129;-78
2022/05/02 02:59:16;;;;;;;42.23;28.93;;;4.80;1.00;5.30;94085.00;;;;7387321;19;20162;-77
2022/05/02 03:01:43;;;;;;;42.80;27.67;;;4.70;1.00;5.30;94074.00;;;;7392815;19;20178;-78
2022/05/02 03:07:05;;;;;;;44.23;28.07;;;4.70;1.00;5.40;94050.00;;;;7397764;19;20153;-78
2022/05/02 03:09:32;;;;;;;40.63;27.90;;;4.80;1.00;5.40;94083.00;;;;7401014;19;20186;-76
2022/05/02 03:11:59;;;;;;;43.03;28.03;;;4.80;1.00;5.40;94040.00;;;;7396208;19;20168;-78
2022/05/02 03:14:33;;;;;;;40.23;26.90;;;4.80;1.00;5.30;94070.00;;;;7398451;19;20197;-78
2022/05/02 03:17:00;;;;;;;44.47;28.23;;;4.70;1.00;5.30;94050.00;;;;7398087;19;20137;-78
2022/05/02 03:19:27;;;;;;;36.07;26.60;;;4.70;1.00;5.30;94061.00;;;;7398434;19;20121;-77
2022/05/02 03:22:01;;;;;;;36.97;25.80;;;4.70;1.00;5.20;94050.00;;;;7398579;19;20128;-78
2022/05/02 03:24:28;;;;;;;39.60;26.13;;;4.60;1.00;5.20;94069.00;;;;7397171;19;20604;-77
2022/05/02 03:27:01;;;;;;;38.77;27.07;;;4.60;1.00;5.20;94045.00;;;;7398982;19;20177;-78
2022/05/02 03:29:36;;;;;;;39.87;25.37;;;4.60;1.00;5.20;94049.00;;;;7395990;19;20135;-78
2022/05/02 03:32:03;;;;;;;36.33;25.73;;;4.60;1.00;5.20;94057.00;;;;7396698;19;20171;-78
2022/05/02 03:34:31;;;;;;;37.50;26.00;;;4.60;1.00;5.20;93992.00;;;;7398815;19;20117;-78
2022/05/02 03:37:05;;;;;;;31.57;24.03;;;4.60;1.00;5.20;94048.00;;;;7399413;19;20117;-77
2022/05/02 03:39:32;;;;;;;33.77;24.10;;;4.60;1.00;5.20;94020.00;;;;7396352;19;20609;-77
2022/05/02 03:41:59;;;;;;;36.10;24.80;;;4.60;1.00;5.20;94021.00;;;;7396099;19;20623;-76
2022/05/02 03:44:33;;;;;;;38.90;24.43;;;4.60;1.00;5.20;94046.00;;;;7398474;19;20121;-76
2022/05/02 03:47:00;;;;;;;37.87;24.70;;;4.60;1.00;5.10;94008.00;;;;7400150;19;20125;-77
2022/05/02 03:49:27;;;;;;;35.33;24.83;;;4.50;1.00;5.10;94031.00;;;;7392318;19;20139;-77
2022/05/02 03:52:01;;;;;;;34.07;24.30;;;4.50;1.00;5.10;94053.00;;;;7396230;19;20920;-78
2022/05/02 03:54:28;;;;;;;34.03;24.57;;;4.50;1.00;5.20;94013.00;;;;7396976;19;20154;-78
2022/05/02 03:56:55;;;;;;;37.27;25.50;;;4.50;1.00;5.20;94037.00;;;;7396947;19;20133;-77
2022/05/02 03:59:29;;;;;;;38.90;25.77;;;4.60;1.00;5.20;94010.00;;;;7395761;19;20132;-77
2022/05/02 04:01:56;;;;;;;31.80;23.63;;;4.60;1.00;5.20;94022.00;;;;7399748;19;20744;-77
2022/05/02 04:04:24;;;;;;;39.83;24.70;;;4.60;1.00;5.20;94028.00;;;;7396294;19;20604;-78
2022/05/02 04:06:58;;;;;;;32.40;24.03;;;4.60;1.00;5.30;94024.00;;;;7397279;19;20612;-77
2022/05/02 04:09:25;;;;;;;32.97;23.50;;;4.60;1.00;5.30;94030.00;;;;7394510;19;20180;-78
2022/05/02 04:11:52;;;;;;;34.10;22.80;;;4.60;1.00;5.30;94027.00;;;;7395722;19;20144;-77
2022/05/02 04:14:32;;;;;;;31.53;21.90;;;4.60;1.00;5.30;94014.00;;;;7395503;19;20604;-76
2022/05/02 04:16:59;;;;;;;31.00;21.97;;;4.60;1.00;5.30;94024.00;;;;7392680;19;20125;-78
2022/05/02 04:19:33;;;;;;;32.70;22.53;;;4.60;1.00;5.30;94039.00;;;;7397629;19;20132;-78
2022/05/02 04:22:00;;;;;;;29.57;22.27;;;4.60;1.00;5.50;94021.00;;;;7398881;19;20648;-77
2022/05/02 04:24:28;;;;;;;27.93;21.10;;;4.60;1.00;5.50;94017.00;;;;7394595;19;20121;-77
2022/05/02 04:27:02;;;;;;;24.37;19.03;;;4.60;1.00;5.40;94034.00;;;;7394964;19;20140;-78
2022/05/02 04:29:29;;;;;;;26.10;19.47;;;4.60;1.00;5.50;94047.00;;;;7396209;19;20157;-78
2022/05/02 04:31:56;;;;;;;24.73;18.67;;;4.60;1.00;5.50;94024.00;;;;7394835;19;20141;-78
2022/05/02 04:34:30;;;;;;;27.17;19.73;;;4.70;1.00;5.50;94016.00;;;;7395493;19;20129;-77
2022/05/02 04:36:57;;;;;;;23.87;18.00;;;4.70;1.00;5.60;94001.00;;;;7400122;19;20133;-79
2022/05/02 04:39:24;;;;;;;24.33;18.90;;;4.70;1.00;5.60;93999.00;;;;7394915;19;20207;-78
2022/05/02 04:41:57;;;;;;;24.40;18.80;;;4.70;1.00;5.70;94016.00;;;;7394348;19;20133;-78
2022/05/02 04:44:25;;;;;;;21.43;17.57;;;4.70;1.00;5.80;94024.00;;;;7394614;19;20133;-78
2022/05/02 04:46:52;;;;;;;21.60;17.17;;;4.80;1.00;5.80;94031.00;;;;7394983;19;20585;-78
2022/05/02 04:49:28;;;;;;;22.87;16.10;;;4.80;1.00;5.80;94017.00;;;;7388325;19;20624;-79
2022/05/02 04:51:55;;;;;;;20.27;16.30;;;4.80;1.00;5.80;94012.00;;;;7395132;19;20175;-79
2022/05/02 04:54:22;;;;;;;20.87;15.70;;;4.90;1.00;5.80;94004.00;;;;7397928;19;20148;-79
2022/05/02 04:56:56;;;;;;;20.20;15.40;;;4.90;1.00;5.90;94036.00;;;;7399214;19;20136;-78
2022/05/02 04:59:29;;;;;;;21.27;15.53;;;4.90;1.00;6.10;94037.00;;;;7395908;19;20501;-79
2022/05/02 05:02:04;;;;;;;18.73;14.23;;;5.00;1.00;6.20;94022.00;;;;7398074;19;20151;-78
2022/05/02 05:04:34;;;;;;;18.10;13.70;;;5.10;1.00;6.30;94022.00;;;;7402442;19;20152;-77
2022/05/02 05:07:02;;;;;;;24.17;15.37;;;5.20;1.00;6.40;94037.00;;;;7401030;19;20121;-78
2022/05/02 05:09:36;;;;;;;18.73;13.73;;;5.20;1.00;6.50;94041.00;;;;7395747;19;20154;-78
2022/05/02 05:12:49;;;;;;;17.33;13.87;;;5.30;1.00;6.70;94032.00;;;;7397237;19;20141;-79
2022/05/02 05:19:20;;;;;;;15.70;12.07;;;5.60;1.00;6.90;94039.00;;;;7399282;19;20137;-78
2022/05/02 05:22:58;;;;;;;17.43;12.23;;;5.70;1.00;7.00;94042.00;;;;7398333;19;20140;-80
2022/05/02 05:25:31;;;;;;;14.87;11.97;;;5.80;1.00;7.30;94042.00;;;;7403214;19;20155;-79
2022/05/02 05:28:29;;;;;;;15.33;11.50;;;5.90;1.00;7.40;94048.00;;;;7400108;19;20148;-79
2022/05/02 05:31:25;;;;;;;18.20;10.90;;;6.00;1.00;7.60;94038.00;;;;7401156;19;20141;-79
2022/05/02 05:34:24;;;;;;;13.30;11.33;;;6.10;99.90;8.00;94034.00;;;;7400995;19;20152;-79
2022/05/02 05:37:26;;;;;;;16.00;11.73;;;6.30;99.90;8.50;94039.00;;;;7399043;19;20137;-80
2022/05/02 05:40:06;;;;;;;16.67;13.23;;;6.60;99.90;8.90;94036.00;;;;7398694;19;20129;-78
2022/05/02 05:42:46;;;;;;;13.47;11.43;;;6.90;99.90;9.20;94041.00;;;;7396889;19;20181;-81
2022/05/02 05:45:52;;;;;;;15.17;11.83;;;7.20;99.90;9.70;94031.00;;;;7401977;19;20159;-79
2022/05/02 05:49:09;;;;;;;15.10;11.83;;;7.50;99.90;10.20;93994.00;;;;7399717;19;20156;-80
2022/05/02 05:52:27;;;;;;;15.67;11.03;;;7.90;1.00;10.90;94038.00;;;;7395322;19;20160;-80
2022/05/02 05:55:10;;;;;;;13.17;9.50;;;8.30;99.90;11.20;94034.00;;;;7399772;19;20141;-75
2022/05/02 05:58:35;;;;;;;11.03;9.93;;;8.70;50.30;11.40;94022.00;;;;7401488;19;20515;-80
2022/05/02 06:01:30;;;;;;;12.00;10.17;;;9.00;1.00;11.60;93990.00;;;;7398549;19;20140;-80
2022/05/02 06:04:14;;;;;;;11.30;10.20;;;9.20;1.00;11.90;94030.00;;;;7400469;19;20164;-76
2022/05/02 06:06:42;;;;;;;11.68;10.32;;;9.60;1.00;12.00;94033.00;;;;7396245;19;20145;-76
2022/05/02 06:09:20;;;;;;;11.23;10.02;;;9.80;1.00;12.10;94015.00;;;;7394846;19;20156;-79
2022/05/02 06:11:51;;;;;;;10.93;9.35;;;9.90;99.90;12.10;94028.00;;;;7392553;19;20152;-77
2022/05/02 06:18:27;;;;;;;11.90;10.07;;;10.10;20.80;12.10;94028.00;;;;7387206;19;20149;-77
2022/05/02 06:20:24;;;;;;;14.25;9.73;;;10.10;49.50;12.10;94034.00;;;;7395211;19;20479;-79
2022/05/02 06:22:53;;;;;;;10.98;9.85;;;10.10;1.00;12.50;94032.00;;;;7393520;19;20152;-79
2022/05/02 06:25:23;;;;;;;11.32;9.38;;;10.40;1.00;12.90;94026.00;;;;7395476;19;20604;-79
2022/05/02 06:28:00;;;;;;;12.05;9.65;;;10.60;1.00;12.90;94040.00;;;;7396271;19;20223;-79
2022/05/02 06:30:30;;;;;;;12.43;8.90;;;10.70;99.90;13.00;94032.00;;;;7390208;19;20247;-77
2022/05/02 06:33:13;;;;;;;12.60;9.40;;;10.80;99.90;13.30;94028.00;;;;7393251;19;20133;-80
2022/05/02 06:36:35;;;;;;;12.82;8.60;;;11.00;99.90;13.50;94015.00;;;;7395999;19;20136;-79
2022/05/02 06:39:55;;;;;;;11.60;8.50;;;11.40;1.00;14.40;93976.00;;;;7389542;19;20253;-77
2022/05/02 06:43:32;;;;;;;9.05;8.15;;;11.80;24.00;14.40;94031.00;;;;7393120;19;20144;-77
2022/05/02 06:46:49;;;;;;;11.25;7.97;;;12.10;62.40;14.80;94024.00;;;;7390373;19;20216;-78
2022/05/02 06:49:42;;;;;;;10.98;8.50;;;12.40;1.00;15.20;94035.00;;;;7394103;19;20177;-78
2022/05/02 06:53:02;;;;;;;9.57;7.93;;;12.60;1.00;15.50;94028.00;;;;7391128;19;20140;-78
2022/05/02 06:56:38;;;;;;;13.63;9.27;;;13.00;1.00;16.30;94027.00;;;;7391324;19;20147;-80
2022/05/02 07:00:00;;;;;;;12.75;9.85;;;13.40;99.90;16.60;94025.00;;;;7390884;19;20168;-78
2022/05/02 07:03:41;;;;;;;10.38;8.93;;;;;16.80;94030.00;;;;7392487;19;20153;-78
2022/05/02 07:07:08;;;;;;;;;;;;;;;;;;;;;
2022/05/02 07:10:03;;;;;;;12.38;9.20;;;;;17.00;94035.00;;;;7391879;19;20177;-79
2022/05/02 07:12:59;;;;;;;10.40;9.30;;;;;17.30;94030.00;;;;7395090;19;20152;-80
2022/05/02 07:15:49;;;;;;;10.75;9.45;;;;;17.60;94035.00;;;;7396995;19;20174;-77
2022/05/02 07:18:59;;;;;;;12.63;11.38;;;;;17.20;94046.00;;;;7397504;19;20129;-79
2022/05/02 07:21:39;;;;;;;12.60;11.40;;;;;17.30;94037.00;;;;7397966;19;20169;-79
2022/05/02 07:24:40;;;;;;;14.15;12.43;;;;;18.00;94042.00;;;;7396482;19;20183;-79
2022/05/02 07:27:41;;;;;;;13.20;11.90;;;;;18.80;94038.00;;;;7396412;19;20200;-77
2022/05/02 07:30:19;;;;;;;14.23;12.68;;;;;18.90;94045.00;;;;7397092;19;20624;-78
2022/05/02 07:32:47;;;;;;;15.40;12.73;;;;;17.40;94047.00;;;;7396425;19;20159;-77
2022/05/02 07:35:16;;;;;;;14.20;12.73;;;;;17.30;94051.00;;;;7395136;19;20588;-78
2022/05/02 07:37:52;;;;;;;14.23;12.45;;;;;17.00;94053.00;;;;7395395;19;20592;-77
2022/05/02 07:40:21;;;;;;;13.35;12.05;;;;;17.00;94057.00;;;;7394785;19;20157;-78
2022/05/02 07:42:53;;;;;;;13.15;11.75;;;;;16.80;94055.00;;;;7393016;19;20152;-78
2022/05/02 07:45:30;;;;;;;12.88;11.57;;;;;17.00;94055.00;;;;7390176;19;20152;-78
2022/05/02 07:48:10;;;;;;;15.40;13.02;;;;;17.40;94054.00;;;;7395160;19;20137;-78
2022/05/02 07:50:52;;;;;;;13.10;11.75;;;;;17.60;94053.00;;;;7393302;19;20648;-78
2022/05/02 07:53:36;;;;;;;16.00;11.70;;;;;17.80;94053.00;;;;7397754;19;20293;-78
2022/05/02 07:56:49;;;;;;;14.05;12.45;;;;;17.90;94059.00;;;;7399456;19;20165;-77
2022/05/02 08:00:00;;;;;;;13.25;11.85;;;;;18.00;94048.00;;;;7402335;19;20143;-78
2022/05/02 08:02:43;;;;;;;16.08;11.98;;;;;18.20;94051.00;;;;7402057;19;20745;-77
2022/05/02 08:05:24;;;;;;;14.05;12.57;;;;;18.20;94048.00;;;;7396998;19;20153;-77
2022/05/02 08:08:20;;;;;;;13.82;12.43;;;;;17.90;94053.00;;;;7399984;19;20139;-77
2022/05/02 08:11:11;;;;;;;13.52;12.10;;;;;18.50;94055.00;;;;7399462;19;20169;-79
2022/05/02 08:14:22;;;;;;;12.88;11.38;;;;;18.30;94053.00;;;;7400268;19;20156;-77
2022/05/02 08:17:01;;;;;;;15.10;12.75;;;;;17.80;94045.00;;;;7398866;19;20160;-78
2022/05/02 08:19:48;;;;;;;13.43;11.98;;;;;18.10;94064.00;;;;7399042;19;20149;-77
2022/05/02 08:28:49;;;;;;;13.18;11.48;;;;;19.20;94054.00;;;;7399543;19;20177;-77
2022/05/02 08:31:39;;;;;;;14.23;12.52;;;;;18.80;94057.00;;;;7395916;19;20538;-77
2022/05/02 08:34:21;;;;;;;12.80;11.38;;;;;19.40;94038.00;;;;7396049;19;20649;-78
2022/05/02 08:37:12;;;;;;;12.60;11.30;;;;;20.20;94036.00;;;;7398477;19;20125;-79
2022/05/02 08:40:04;;;;;;;13.70;11.38;;;;;20.30;94039.00;;;;7396442;19;20129;-79
2022/05/02 08:43:06;;;;;;;11.93;10.73;;;;;20.60;94048.00;;;;7398078;19;20513;-77
2022/05/02 08:46:03;;;;;;;11.50;10.30;;;;;20.20;94048.00;;;;7395119;19;20133;-79
2022/05/02 08:49:33;;;;;;;14.68;10.23;;;;;18.60;94055.00;;;;7397602;19;20153;-77
2022/05/02 08:52:10;;;;;;;11.70;10.35;;;;;19.20;94035.00;;;;7394318;19;20140;-78
2022/05/02 08:55:07;;;;;;;11.65;10.45;;;;;19.90;94035.00;;;;7396436;19;20144;-77
2022/05/02 08:58:07;;;;;;;10.20;9.30;;;;;20.90;94032.00;;;;7396473;19;20141;-77
2022/05/02 09:00:53;;;;;;;10.50;9.48;;;;;20.30;94063.00;;;;7396011;19;20124;-77
2022/05/02 09:03:24;;;;;;;10.65;9.65;;;;;18.90;94051.00;;;;7395642;19;20475;-78
2022/05/02 09:06:25;;;;;;;13.52;9.85;;;;;18.10;94038.00;;;;7397202;19;20148;-78
2022/05/02 09:09:11;;;;;;;13.48;9.68;;;;;18.40;94053.00;;;;7396023;19;20125;-76
2022/05/02 09:12:05;;;;;;;15.05;10.07;;;;;17.60;94069.00;;;;7395261;19;20132;-79
2022/05/02 09:14:48;;;;;;;13.05;11.52;;;;;17.40;94061.00;;;;7393220;19;20168;-77
2022/05/02 09:18:16;;;;;;;10.75;9.75;;;16.10;1.00;16.80;94068.00;;;;7397717;19;20125;-78
2022/05/02 09:21:15;;;;;;;12.50;11.20;;;15.90;1.00;16.10;94076.00;;;;7394319;19;20129;-78
2022/05/02 09:24:53;;;;;;;12.98;10.32;;;15.60;1.00;15.80;94069.00;;;;7395377;19;20537;-76
2022/05/02 09:28:08;;;;;;;12.30;9.55;;;15.20;1.00;16.10;94072.00;;;;7397947;19;20132;-78
2022/05/02 09:31:25;;;;;;;13.73;10.50;;;15.10;1.00;17.70;94058.00;;;;7393962;19;20148;-76
2022/05/02 09:34:33;;;;;;;13.18;11.18;;;15.50;1.00;16.80;94050.00;;;;7395058;19;20158;-77
2022/05/02 09:37:21;;;;;;;12.65;11.45;;;15.60;1.00;16.40;94041.00;;;;7395882;19;20222;-75
2022/05/02 09:40:12;;;;;;;11.52;10.32;;;15.20;1.00;18.10;94028.00;;;;7395610;19;20146;-76
2022/05/02 09:43:00;;;;;;;12.80;10.93;;;15.50;1.00;20.70;94034.00;;;;7395329;19;20497;-77
2022/05/02 09:49:33;;;;;;;10.25;9.25;;;18.00;1.00;20.20;94032.00;;;;7393775;19;20137;-76
2022/05/02 09:52:27;;;;;;;10.00;8.13;;;18.50;1.00;20.00;94023.00;;;;7389646;19;20133;-76
2022/05/02 09:58:42;;;;;;;9.48;8.48;;;17.90;1.00;19.10;94052.00;;;;7395558;19;20132;-77
2022/05/02 10:01:26;;;;;;;9.98;8.93;;;17.70;1.00;19.00;94045.00;;;;7393555;19;20125;-77
2022/05/02 10:04:25;;;;;;;10.52;9.50;;;17.50;1.00;20.80;94022.00;;;;7392703;19;20133;-77
2022/05/02 10:07:09;;;;;;;10.27;8.82;;;17.90;1.00;22.90;94009.00;;;;7391883;19;20125;-77
2022/05/02 10:10:00;;;;;;;9.25;8.35;;;19.20;1.00;22.30;94036.00;;;;7390766;19;20168;-77
2022/05/02 10:13:16;;;;;;;9.73;8.77;;;19.70;99.90;21.10;94033.00;;;;7392008;19;20490;-77
2022/05/02 10:16:33;;;;;;;11.10;8.90;;;19.70;99.90;20.10;94025.00;;;;7391673;19;20252;-75
2022/05/02 10:19:24;;;;;;;9.20;8.40;;;19.10;99.90;20.10;94000.00;;;;7391893;19;20137;-77
2022/05/02 10:22:52;;;;;;;9.35;8.07;;;18.80;99.90;19.70;94033.00;;;;7393340;19;20132;-75
2022/05/02 10:25:43;;;;;;;8.73;7.82;;;18.40;99.90;19.60;94025.00;;;;7387094;19;20137;-75
2022/05/02 10:28:33;;;;;;;8.75;7.85;;;18.00;99.90;21.00;94021.00;;;;7386993;19;20136;-77
2022/05/02 10:31:19;;;;;;;9.30;8.32;;;18.80;1.00;20.50;94028.00;;;;7386890;19;20140;-77
2022/05/02 10:33:51;;;;;;;9.05;8.15;;;19.10;99.90;21.00;94027.00;;;;7387466;19;20132;-76
2022/05/02 10:36:37;;;;;;;10.38;8.30;;;19.40;99.90;21.30;94039.00;;;;7386370;19;20535;-76
2022/05/02 10:39:38;;;;;;;9.30;8.27;;;19.70;99.90;19.80;93999.00;;;;7386581;19;20148;-78
2022/05/02 10:42:18;;;;;;;9.82;8.82;;;18.90;99.90;19.00;94008.00;;;;7386926;19;20192;-77
2022/05/02 10:45:07;;;;;;;10.38;9.23;;;18.20;99.90;18.10;94016.00;;;;7384480;19;20510;-75
2022/05/02 10:47:53;;;;;;;11.05;8.50;;;17.70;99.90;17.80;94047.00;;;;7394263;19;20475;-76
2022/05/02 10:50:31;;;;;;;13.82;9.18;;;17.20;1.00;17.80;94003.00;;;;7390147;19;20665;-77
2022/05/02 10:53:50;;;;;;;12.38;9.52;;;17.10;99.90;17.50;94037.00;;;;7390149;19;20131;-77
2022/05/02 10:56:52;;;;;;;10.95;9.65;;;16.80;1.00;17.10;93992.00;;;;7390522;19;20136;-77
2022/05/02 10:59:38;;;;;;;11.93;10.20;;;16.50;1.00;16.90;94006.00;;;;7390608;19;20152;-78
2022/05/02 11:02:46;;;;;;;15.13;10.55;;;16.30;1.00;17.00;94030.00;;;;7389897;19;20192;-78
2022/05/02 11:05:25;;;;;;;10.93;9.57;;;16.00;1.00;18.60;93991.00;;;;7391777;19;20129;-77
2022/05/02 11:08:11;;;;;;;10.98;9.90;;;16.50;1.00;20.40;94018.00;;;;7390245;19;20601;-77
2022/05/02 11:10:58;;;;;;;10.68;9.68;;;17.50;1.00;21.30;93954.00;;;;7388494;19;20231;-78
2022/05/02 11:13:39;;;;;;;9.90;9.00;;;18.60;1.00;22.80;93976.00;;;;7389720;19;20548;-78
2022/05/02 11:16:39;;;;;;;11.55;9.07;;;20.20;99.90;24.10;93988.00;;;;7389526;19;20488;-77
2022/05/02 11:22:36;;;;;;;10.20;9.20;;;21.30;99.90;20.30;94018.00;;;;7392475;19;20151;-77
2022/05/02 11:25:12;;;;;;;11.13;9.98;;;20.30;99.90;19.70;93994.00;;;;7393509;19;20145;-79
2022/05/02 11:28:29;;;;;;;11.05;10.05;;;19.50;99.90;19.00;93982.00;;;;7398955;19;20528;-77
2022/05/02 11:31:25;;;;;;;10.40;9.00;;;18.70;99.90;20.50;93976.00;;;;7398665;19;20576;-80
2022/05/02 11:34:47;;;;;;;9.75;8.75;;;18.60;99.90;23.70;93973.00;;;;7398997;19;20133;-78
2022/05/02 11:37:36;;;;;;;8.93;8.10;;;20.20;99.90;23.70;93971.00;;;;7398162;19;20131;-79
2022/05/02 11:40:11;;;;;;;9.02;8.23;;;21.50;99.90;22.70;93983.00;;;;7397053;19;20172;-78
2022/05/02 11:42:46;;;;;;;8.52;7.63;;;21.40;99.90;21.00;93996.00;;;;7397776;19;20488;-78
2022/05/02 11:45:44;;;;;;;10.10;9.10;;;20.60;99.90;19.90;93998.00;;;;7395764;19;20591;-76
2022/05/02 11:48:20;;;;;;;9.73;8.73;;;19.60;99.90;18.90;94001.00;;;;7398833;19;20125;-76
2022/05/02 11:50:59;;;;;;;9.32;8.43;;;18.80;99.90;18.40;94010.00;;;;7397867;19;20145;-78
2022/05/02 11:53:36;;;;;;;9.95;8.98;;;18.40;99.90;19.00;93977.00;;;;7398950;19;20117;-78
2022/05/02 11:56:16;;;;;;;10.50;8.68;;;18.00;99.90;20.70;93980.00;;;;7397812;19;20169;-79
2022/05/02 11:58:46;;;;;;;9.80;7.95;;;18.60;99.90;19.80;93997.00;;;;7396938;19;20456;-78
2022/05/02 12:01:25;;;;;;;10.85;7.63;;;18.80;99.90;18.90;93984.00;;;;7398273;19;20204;-77
2022/05/02 12:03:59;;;;;;;9.63;7.50;;;18.40;99.90;18.40;94008.00;;;;7399042;19;20121;-77
2022/05/02 12:07:01;;;;;;;8.52;7.72;;;18.10;99.90;18.10;93983.00;;;;7397911;19;20133;-77
2022/05/02 12:09:34;;;;;;;7.97;7.25;;;17.70;99.90;17.90;93980.00;;;;7396824;19;20137;-79
2022/05/02 12:12:10;;;;;;;10.38;7.57;;;17.30;99.90;17.20;94012.00;;;;7396116;19;20216;-75
2022/05/02 12:15:10;;;;;;;7.53;6.72;;;16.90;1.00;18.80;93969.00;;;;7395173;19;20164;-77
2022/05/02 12:17:55;;;;;;;7.57;6.88;;;17.20;1.00;20.70;93995.00;;;;7398293;19;20157;-79
2022/05/02 12:20:34;;;;;;;8.10;7.30;;;18.20;99.90;20.20;93991.00;;;;7397119;19;20149;-79
2022/05/02 12:23:18;;;;;;;9.20;6.85;;;18.60;99.90;19.70;93983.00;;;;7398342;19;20141;-78
2022/05/02 12:25:54;;;;;;;7.47;6.78;;;18.60;99.90;20.40;93959.00;;;;7397275;19;20161;-78
2022/05/02 12:28:47;;;;;;;7.05;5.45;;;18.60;99.90;22.90;93951.00;;;;7399250;19;20152;-80
2022/05/02 12:31:29;;;;;;;6.28;5.68;;;20.00;99.90;23.60;93937.00;;;;7397583;19;20620;-79
2022/05/02 12:34:07;;;;;;;8.07;6.80;;;21.30;99.90;23.70;93968.00;;;;7396189;19;20260;-80
2022/05/02 12:36:56;;;;;;;6.07;5.47;;;21.90;99.90;22.10;93973.00;;;;7394065;19;20197;-78
2022/05/02 12:39:36;;;;;;;6.70;6.00;;;21.90;99.90;20.80;93964.00;;;;7394904;19;20146;-78
2022/05/02 12:42:16;;;;;;;6.55;5.15;;;21.10;99.90;20.10;93970.00;;;;7395973;19;20700;-78
2022/05/02 12:45:13;;;;;;;5.15;4.70;;;20.10;99.90;19.70;93986.00;;;;7391712;19;20132;-77
2022/05/02 12:48:08;;;;;;;5.53;4.53;;;19.40;99.90;20.60;93931.00;;;;7396010;19;20121;-77